Time;durP1;ratioP1;P1;durP2;ratioP2;P2;SDS_P1;SDS_P2;PMS_P1;PMS_P2;Temp;Humidity;BMP_temperature;BMP_pressure;BME280_temperature;BME280_humidity;BME280_pressure;Samples;Min_cycle;Max_cycle;Signal;HPM_P1;HPM_P2
2022/05/05 00:00:14;;;;;;;17.20;7.28;;;;;;;;;;5024098;28;20140;-71
2022/05/05 00:02:40;;;;;;;17.98;6.93;;;;;;;;;;5035994;28;20026;-71
2022/05/05 00:05:06;;;;;;;15.73;6.93;;;;;;;;;;5036582;28;20081;-71
2022/05/05 00:07:32;;;;;;;12.45;7.00;;;;;;;;;;5034668;28;20045;-71
2022/05/05 00:09:58;;;;;;;16.27;7.20;;;;;;;;;;5036913;28;20033;-71
2022/05/05 00:15:09;;;;;;;13.15;6.88;;;;;;;;;;5033617;28;20035;-70
2022/05/05 00:17:35;;;;;;;11.52;6.40;;;;;;;;;;5034167;28;20030;-72
2022/05/05 00:20:01;;;;;;;14.38;6.80;;;;;;;;;;5030279;28;20067;-71
2022/05/05 00:22:27;;;;;;;14.18;6.70;;;;;;;;;;5039782;28;20068;-71
2022/05/05 00:24:53;;;;;;;13.52;7.07;;;;;;;;;;5038220;28;20022;-71
2022/05/05 00:27:21;;;;;;;15.00;7.13;;;;;;;;;;5033351;28;20041;-71
2022/05/05 00:29:48;;;;;;;16.63;6.95;;;;;;;;;;5041348;28;20057;-72
2022/05/05 00:32:14;;;;;;;15.63;6.75;;;;;;;;;;5038144;28;20030;-71
2022/05/05 00:34:40;;;;;;;21.10;7.38;;;;;;;;;;5039681;28;20030;-72
2022/05/05 00:37:06;;;;;;;17.50;7.32;;;;;;;;;;5027449;28;20046;-71
2022/05/05 00:39:32;;;;;;;16.55;7.18;;;;;;;;;;5024620;28;20037;-72
2022/05/05 00:42:00;;;;;;;15.00;7.38;;;;;;;;;;5039651;28;20050;-72
2022/05/05 00:44:26;;;;;;;13.93;7.43;;;;;;;;;;5031416;28;20026;-71
2022/05/05 00:46:52;;;;;;;13.30;6.70;;;;;;;;;;5036233;28;20029;-70
2022/05/05 00:49:19;;;;;;;16.45;7.40;;;;;;;;;;5025718;28;20018;-72
2022/05/05 00:51:45;;;;;;;14.73;6.90;;;;;;;;;;5037548;28;20030;-72
2022/05/05 00:54:11;;;;;;;13.68;7.80;;;;;;;;;;5018736;28;20058;-72
2022/05/05 00:56:38;;;;;;;14.23;7.38;;;;;;;;;;5034562;28;20033;-71
2022/05/05 00:59:05;;;;;;;17.27;7.32;;;;;;;;;;5035690;28;20027;-71
2022/05/05 01:01:31;;;;;;;15.40;8.10;;;;;;;;;;5036142;28;20030;-72
2022/05/05 01:03:58;;;;;;;13.48;7.43;;;;;;;;;;5038440;28;20022;-71
2022/05/05 01:06:24;;;;;;;14.00;7.85;;;;;;;;;;5029321;28;20038;-72
2022/05/05 01:08:50;;;;;;;18.90;8.35;;;;;;;;;;5034007;28;20025;-71
2022/05/05 01:11:16;;;;;;;12.02;7.07;;;;;;;;;;5035848;28;20045;-71
2022/05/05 01:13:43;;;;;;;16.27;8.40;;;;;;;;;;5032648;28;20026;-71
2022/05/05 01:16:09;;;;;;;13.15;8.18;;;;;;;;;;5031728;28;20034;-71
2022/05/05 01:18:35;;;;;;;17.63;8.07;;;;;;;;;;5031498;28;20050;-71
2022/05/05 01:21:01;;;;;;;14.05;8.30;;;;;;;;;;5029852;28;20053;-70
2022/05/05 01:23:27;;;;;;;13.93;7.85;;;;;;;;;;5039906;28;20085;-71
2022/05/05 01:28:45;;;;;;;15.75;8.05;;;;;;;;;;5021187;28;20061;-72
2022/05/05 01:31:11;;;;;;;15.40;8.50;;;;;;;;;;5039109;28;20017;-70
2022/05/05 01:33:38;;;;;;;16.17;7.65;;;;;;;;;;5037084;28;20045;-71
2022/05/05 01:36:04;;;;;;;13.60;7.90;;;;;;;;;;5021639;28;20034;-71
2022/05/05 01:38:37;;;;;;;14.07;7.78;;;;;;;;;;5022121;28;20037;-71
2022/05/05 01:41:05;;;;;;;19.05;7.70;;;;;;;;;;5021899;28;20050;-71
2022/05/05 01:43:31;;;;;;;14.90;8.50;;;;;;;;;;5029155;28;20026;-71
2022/05/05 01:45:57;;;;;;;17.38;9.00;;;;;;;;;;5029515;28;20082;-71
2022/05/05 01:48:23;;;;;;;18.85;8.25;;;;;;;;;;5035210;28;20064;-71
2022/05/05 01:50:49;;;;;;;16.67;8.43;;;;;;;;;;5039626;28;20052;-71
2022/05/05 01:53:15;;;;;;;17.67;9.15;;;;;;;;;;5027694;28;20022;-71
2022/05/05 01:55:42;;;;;;;16.77;8.38;;;;;;;;;;5026174;28;20033;-70
2022/05/05 01:58:08;;;;;;;18.10;9.18;;;;;;;;;;5032032;28;20073;-71
2022/05/05 02:00:34;;;;;;;13.73;8.63;;;;;;;;;;5021640;28;20093;-71
2022/05/05 02:03:01;;;;;;;22.45;9.80;;;;;;;;;;5031735;28;20026;-71
2022/05/05 02:05:27;;;;;;;21.80;9.52;;;;;;;;;;5039728;28;20089;-71
2022/05/05 02:07:53;;;;;;;19.20;9.88;;;;;;;;;;5025906;28;20030;-71
2022/05/05 02:10:24;;;;;;;17.75;10.43;;;;;;;;;;5022869;28;20025;-71
2022/05/05 02:12:53;;;;;;;14.23;9.18;;;;;;;;;;5033924;28;20033;-72
2022/05/05 02:15:19;;;;;;;14.13;9.45;;;;;;;;;;5020362;28;20022;-70
2022/05/05 02:17:45;;;;;;;15.52;10.50;;;;;;;;;;5037972;28;20034;-72
2022/05/05 02:20:12;;;;;;;17.67;10.32;;;;;;;;;;5039300;28;20026;-71
2022/05/05 02:22:38;;;;;;;16.75;10.02;;;;;;;;;;5032109;28;20062;-70
2022/05/05 02:25:05;;;;;;;16.38;10.55;;;;;;;;;;5039366;28;20021;-71
2022/05/05 02:27:30;;;;;;;15.70;10.00;;;;;;;;;;5031584;28;20105;-71
2022/05/05 02:29:56;;;;;;;16.58;10.25;;;;;;;;;;5039248;28;20030;-71
2022/05/05 02:32:22;;;;;;;19.13;11.05;;;;;;;;;;5037372;28;20017;-71
2022/05/05 02:34:48;;;;;;;20.20;11.30;;;;;;;;;;5036602;28;20028;-71
2022/05/05 02:40:00;;;;;;;19.10;10.68;;;;;;;;;;5032412;28;20054;-71
2022/05/05 02:42:26;;;;;;;18.13;10.60;;;;;;;;;;5036667;28;20056;-71
2022/05/05 02:44:52;;;;;;;16.50;10.40;;;;;;;;;;5034551;28;20033;-71
2022/05/05 02:47:18;;;;;;;15.88;10.85;;;;;;;;;;5036686;28;20022;-71
2022/05/05 02:49:44;;;;;;;20.38;10.32;;;;;;;;;;5038289;28;20052;-71
2022/05/05 02:52:10;;;;;;;17.80;9.75;;;;;;;;;;5031605;28;20022;-71
2022/05/05 02:54:51;;;;;;;19.33;11.50;;;;;;;;;;5038310;28;20044;-72
2022/05/05 02:57:24;;;;;;;18.27;10.38;;;;;;;;;;5037486;28;20030;-71
2022/05/05 02:59:51;;;;;;;17.13;10.50;;;;;;;;;;5021402;28;20038;-72
2022/05/05 03:02:17;;;;;;;18.23;12.13;;;;;;;;;;5032678;28;20034;-72
2022/05/05 03:04:43;;;;;;;23.50;11.65;;;;;;;;;;5038689;28;20018;-71
2022/05/05 03:07:10;;;;;;;20.13;11.70;;;;;;;;;;5034688;28;20034;-71
2022/05/05 03:09:36;;;;;;;22.23;12.65;;;;;;;;;;5034686;28;20022;-70
2022/05/05 03:12:02;;;;;;;18.77;12.25;;;;;;;;;;5036239;28;20061;-70
2022/05/05 03:14:28;;;;;;;20.67;12.18;;;;;;;;;;5036842;28;20062;-71
2022/05/05 03:16:54;;;;;;;19.92;12.73;;;;;;;;;;5038123;28;20026;-71
2022/05/05 03:19:20;;;;;;;22.20;12.82;;;;;;;;;;5037389;28;20054;-71
2022/05/05 03:21:46;;;;;;;23.40;13.68;;;;;;;;;;5017941;28;20026;-71
2022/05/05 03:24:12;;;;;;;18.40;13.63;;;;;;;;;;5013067;28;20053;-72
2022/05/05 03:26:38;;;;;;;17.48;13.10;;;;;;;;;;5037600;28;20022;-71
2022/05/05 03:29:04;;;;;;;19.65;13.10;;;;;;;;;;5035806;28;20040;-72
2022/05/05 03:31:31;;;;;;;18.60;12.13;;;;;;;;;;5036598;28;20021;-72
2022/05/05 03:33:57;;;;;;;18.40;12.85;;;;;;;;;;5030764;28;20042;-72
2022/05/05 03:36:26;;;;;;;21.45;13.52;;;;;;;;;;5037215;28;20026;-72
2022/05/05 03:38:54;;;;;;;17.27;12.85;;;;;;;;;;5010536;28;20073;-70
2022/05/05 03:41:20;;;;;;;23.00;13.63;;;;;;;;;;5035553;28;20072;-71
2022/05/05 03:43:45;;;;;;;27.15;14.20;;;;;;;;;;5035520;28;20037;-72
2022/05/05 03:46:12;;;;;;;21.55;13.55;;;;;;;;;;5029845;28;20026;-70
2022/05/05 03:48:38;;;;;;;21.17;13.95;;;;;;;;;;4989672;28;20045;-71
2022/05/05 03:51:04;;;;;;;23.40;14.02;;;;;;;;;;5035578;28;20030;-70
2022/05/05 03:53:30;;;;;;;20.13;14.05;;;;;;;;;;5040295;28;20042;-71
2022/05/05 03:55:56;;;;;;;20.77;13.65;;;;;;;;;;5032730;28;20038;-71
2022/05/05 03:58:22;;;;;;;23.48;13.60;;;;;;;;;;5034958;28;20040;-71
2022/05/05 04:00:48;;;;;;;18.92;13.48;;;;;;;;;;5041529;28;20026;-71
2022/05/05 04:03:33;;;;;;;19.73;13.35;;;;;;;;;;5040752;28;20068;-70
2022/05/05 04:05:59;;;;;;;19.85;14.25;;;;;;;;;;5041725;28;20022;-71
2022/05/05 04:08:26;;;;;;;19.00;14.20;;;;;;;;;;5012267;28;20027;-72
2022/05/05 04:10:52;;;;;;;25.98;15.52;;;;;;;;;;5030936;28;20061;-71
2022/05/05 04:13:19;;;;;;;21.02;14.73;;;;;;;;;;5032961;28;20068;-72
2022/05/05 04:15:45;;;;;;;18.63;14.75;;;;;;;;;;5041510;28;20056;-71
2022/05/05 04:18:11;;;;;;;19.08;14.15;;;;;;;;;;5037910;28;20030;-71
2022/05/05 04:20:37;;;;;;;20.38;14.40;;;;;;;;;;5041754;28;20028;-71
2022/05/05 04:23:03;;;;;;;20.85;14.45;;;;;;;;;;5028645;28;20052;-72
2022/05/05 04:25:29;;;;;;;19.83;14.05;;;;;;;;;;5041208;28;20022;-71
2022/05/05 04:27:55;;;;;;;21.83;14.77;;;;;;;;;;5040388;28;20033;-71
2022/05/05 04:30:21;;;;;;;23.13;13.63;;;;;;;;;;5040467;28;20041;-71
2022/05/05 04:32:47;;;;;;;18.30;13.63;;;;;;;;;;5024829;28;20030;-71
2022/05/05 04:35:15;;;;;;;22.80;13.80;;;;;;;;;;5039293;28;20065;-71
2022/05/05 04:37:41;;;;;;;18.75;14.18;;;;;;;;;;5039799;28;20049;-71
2022/05/05 04:40:10;;;;;;;19.48;14.40;;;;;;;;;;5036491;28;20037;-71
2022/05/05 04:42:37;;;;;;;21.30;14.38;;;;;;;;;;5033566;28;20046;-72
2022/05/05 04:45:03;;;;;;;22.63;13.88;;;;;;;;;;5037257;28;20061;-72
2022/05/05 04:47:29;;;;;;;20.67;14.40;;;;;;;;;;5021406;28;20041;-71
2022/05/05 04:49:56;;;;;;;20.13;14.63;;;;;;;;;;5033621;28;20022;-72
2022/05/05 04:52:23;;;;;;;22.20;14.70;;;;;;;;;;5040114;28;20033;-71
2022/05/05 04:54:49;;;;;;;22.58;14.80;;;;;;;;;;5028582;28;20018;-71
2022/05/05 04:57:16;;;;;;;20.65;15.00;;;;;;;;;;5025149;28;20023;-71
2022/05/05 04:59:42;;;;;;;21.38;14.60;;;;;;;;;;5019016;28;20030;-71
2022/05/05 05:02:08;;;;;;;23.02;15.63;;;;;;;;;;5039832;28;20052;-71
2022/05/05 05:04:34;;;;;;;22.52;14.80;;;;;;;;;;5039574;28;20028;-71
2022/05/05 05:07:00;;;;;;;21.20;15.82;;;;;;;;;;5031020;28;20057;-71
2022/05/05 05:09:26;;;;;;;22.80;15.02;;;;;;;;;;5036851;28;20038;-70
2022/05/05 05:11:52;;;;;;;20.70;15.23;;;;;;;;;;5038963;28;20018;-71
2022/05/05 05:14:18;;;;;;;21.13;15.80;;;;;;;;;;5038880;28;20052;-71
2022/05/05 05:16:44;;;;;;;20.92;15.75;;;;;;;;;;5039655;28;20053;-72
2022/05/05 05:19:10;;;;;;;22.13;16.38;;;;;;;;;;5039604;28;20018;-72
2022/05/05 05:21:36;;;;;;;24.25;15.40;;;;;;;;;;5010703;28;20038;-72
2022/05/05 05:24:02;;;;;;;24.33;16.92;;;;;;;;;;5038914;28;20042;-71
2022/05/05 05:26:28;;;;;;;21.33;15.13;;;;;;;;;;5039744;28;20029;-72
2022/05/05 05:28:55;;;;;;;27.38;15.88;;;;;;;;;;5017669;28;20029;-71
2022/05/05 05:31:22;;;;;;;19.38;15.38;;;;;;;;;;5036581;28;20026;-70
2022/05/05 05:33:48;;;;;;;22.20;14.90;;;;;;;;;;5036830;28;20030;-71
2022/05/05 05:36:14;;;;;;;20.48;14.30;;;;;;;;;;5039191;28;20098;-72
2022/05/05 05:38:40;;;;;;;19.88;14.93;;;;;;;;;;5020324;28;20044;-71
2022/05/05 05:41:08;;;;;;;22.20;15.68;;;;;;;;;;5015873;28;20081;-71
2022/05/05 05:43:34;;;;;;;24.65;15.77;;;;;;;;;;5029791;28;20057;-72
2022/05/05 05:46:00;;;;;;;20.92;15.52;;;;;;;;;;5030980;28;20030;-72
2022/05/05 05:48:26;;;;;;;20.25;16.25;;;;;;;;;;5036538;28;20030;-71
2022/05/05 05:50:52;;;;;;;20.73;14.50;;;;;;;;;;5020042;28;20069;-72
2022/05/05 05:53:18;;;;;;;22.40;14.10;;;;;;;;;;5029134;28;20102;-72
2022/05/05 05:55:44;;;;;;;24.80;15.73;;;;;;;;;;5038656;28;20022;-71
2022/05/05 05:58:10;;;;;;;19.30;13.98;;;;;;;;;;5029999;28;20019;-72
2022/05/05 06:00:38;;;;;;;17.40;13.02;;;;;;;;;;5020218;28;20030;-70
2022/05/05 06:05:49;;;;;;;19.67;13.27;;;;;;;;;;5037634;28;20022;-71
2022/05/05 06:08:15;;;;;;;21.45;13.05;;;;;;;;;;5028796;28;20018;-71
2022/05/05 06:10:41;;;;;;;21.33;12.10;;;;;;;;;;5037759;28;20052;-72
2022/05/05 06:13:10;;;;;;;17.15;11.63;;;;;;;;;;5038137;28;20042;-71
2022/05/05 06:15:36;;;;;;;18.92;11.95;;;;;;;;;;5033939;28;20066;-72
2022/05/05 06:18:02;;;;;;;16.45;11.35;;;;;;;;;;5033980;28;20025;-73
2022/05/05 06:20:28;;;;;;;18.45;10.80;;;;;;;;;;5037731;28;20052;-72
2022/05/05 06:22:54;;;;;;;18.02;11.27;;;;;;;;;;5033887;28;20026;-72
2022/05/05 06:25:23;;;;;;;17.67;10.85;;;;;;;;;;5038425;28;20037;-72
2022/05/05 06:27:49;;;;;;;20.17;10.60;;;;;;;;;;5037951;28;20022;-72
2022/05/05 06:30:16;;;;;;;15.50;11.20;;;;;;;;;;5039196;28;20026;-72
2022/05/05 06:32:42;;;;;;;16.02;10.82;;;;;;;;;;5038567;28;20029;-72
2022/05/05 06:35:09;;;;;;;15.60;9.93;;;;;;;;;;5038134;28;20085;-72
2022/05/05 06:37:35;;;;;;;13.15;9.93;;;;;;;;;;5036255;28;20028;-72
2022/05/05 06:40:01;;;;;;;16.00;10.18;;;;;;;;;;5038939;28;20114;-72
2022/05/05 06:42:27;;;;;;;15.80;9.57;;;;;;;;;;5038337;28;20053;-72
2022/05/05 06:44:53;;;;;;;13.50;9.02;;;;;;;;;;5036195;28;20018;-72
2022/05/05 06:47:19;;;;;;;14.45;9.13;;;;;;;;;;5019550;28;20029;-72
2022/05/05 06:49:45;;;;;;;16.55;9.05;;;;;;;;;;5036260;28;20050;-73
2022/05/05 06:52:12;;;;;;;14.85;8.98;;;;;;;;;;5007373;28;20034;-72
2022/05/05 06:54:38;;;;;;;14.10;9.23;;;;;;;;;;5037381;28;20022;-72
2022/05/05 06:57:04;;;;;;;14.57;9.07;;;;;;;;;;5038662;28;20026;-72
2022/05/05 06:59:30;;;;;;;13.23;7.53;;;;;;;;;;5021250;28;20060;-72
2022/05/05 07:02:01;;;;;;;15.63;8.30;;;;;;;;;;5038275;28;20041;-73
2022/05/05 07:07:13;;;;;;;13.02;7.15;;;;;;;;;;5038153;28;20062;-72
2022/05/05 07:12:29;;;;;;;10.98;6.57;;;;;;;;;;5018549;28;20031;-72
2022/05/05 07:14:55;;;;;;;12.75;5.82;;;;;;;;;;5020573;28;20101;-71
2022/05/05 07:17:21;;;;;;;14.77;7.13;;;;;;;;;;5029582;28;20038;-72
2022/05/05 07:19:47;;;;;;;12.73;6.40;;;;;;;;;;5033175;28;20033;-74
2022/05/05 07:22:13;;;;;;;11.30;5.95;;;;;;;;;;5002736;28;20088;-72
2022/05/05 07:24:40;;;;;;;12.82;5.90;;;;;;;;;;5037101;28;20049;-73
2022/05/05 07:27:06;;;;;;;12.57;5.00;;;;;;;;;;5037895;28;20041;-71
2022/05/05 07:29:33;;;;;;;12.20;4.88;;;;;;;;;;5034472;28;20018;-72
2022/05/05 07:31:59;;;;;;;9.82;4.15;;;;;;;;;;5020698;28;20032;-73
2022/05/05 07:34:25;;;;;;;10.05;4.38;;;;;;;;;;5019760;28;20034;-72
2022/05/05 07:36:51;;;;;;;11.00;4.70;;;;;;;;;;5018589;28;20027;-76
2022/05/05 07:39:17;;;;;;;12.48;4.88;;;;;;;;;;5018567;28;20061;-73
2022/05/05 07:41:43;;;;;;;13.10;5.00;;;;;;;;;;5031162;28;20022;-72
2022/05/05 07:44:09;;;;;;;12.82;5.55;;;;;;;;;;5037308;28;20094;-71
2022/05/05 07:46:36;;;;;;;11.77;5.60;;;;;;;;;;5037993;28;20085;-72
2022/05/05 07:49:03;;;;;;;11.98;5.30;;;;;;;;;;5037710;28;20052;-71
2022/05/05 07:51:30;;;;;;;13.95;5.68;;;;;;;;;;5037657;28;20073;-72
2022/05/05 07:56:41;;;;;;;14.45;6.07;;;;;;;;;;5018381;28;20031;-72
2022/05/05 07:59:07;;;;;;;16.92;6.20;;;;;;;;;;5018206;28;20018;-72
2022/05/05 08:01:33;;;;;;;11.13;5.90;;;;;;;;;;5018226;28;20029;-72
2022/05/05 08:03:59;;;;;;;12.00;5.72;;;;;;;;;;5002883;28;20056;-72
2022/05/05 08:06:25;;;;;;;11.68;6.20;;;;;;;;;;5001625;28;20059;-71
2022/05/05 08:08:51;;;;;;;11.75;5.95;;;;;;;;;;5018203;28;20034;-72
2022/05/05 08:11:17;;;;;;;14.30;5.88;;;;;;;;;;5030198;28;20022;-73
2022/05/05 08:13:43;;;;;;;9.73;5.35;;;;;;;;;;5037692;28;20102;-72
2022/05/05 08:16:10;;;;;;;10.27;5.68;;;;;;;;;;5021585;28;20037;-72
2022/05/05 08:18:38;;;;;;;13.95;5.88;;;;;;;;;;5036383;28;20033;-73
2022/05/05 08:21:04;;;;;;;12.38;6.03;;;;;;;;;;5037282;28;20029;-71
2022/05/05 08:23:30;;;;;;;12.90;5.70;;;;;;;;;;5037673;28;20050;-72
2022/05/05 08:28:41;;;;;;;11.85;5.85;;;;;;;;;;5032338;28;20050;-72
2022/05/05 08:31:10;;;;;;;12.02;5.47;;;;;;;;;;5037655;28;20117;-71
2022/05/05 08:33:36;;;;;;;9.35;5.68;;;;;;;;;;5033692;28;20050;-72
2022/05/05 08:36:03;;;;;;;12.40;5.63;;;;;;;;;;5017302;28;20046;-71
2022/05/05 08:38:29;;;;;;;10.68;5.78;;;;;;;;;;5026509;28;20077;-70
2022/05/05 08:40:55;;;;;;;9.88;5.57;;;;;;;;;;5041232;28;20033;-71
2022/05/05 08:43:21;;;;;;;11.45;5.72;;;;;;;;;;5041199;28;20030;-72
2022/05/05 08:45:48;;;;;;;10.75;5.60;;;;;;;;;;5040143;28;20033;-71
2022/05/05 08:48:16;;;;;;;8.70;5.47;;;;;;;;;;5041029;28;20090;-72
2022/05/05 08:50:46;;;;;;;10.65;5.47;;;;;;;;;;5040610;28;20030;-72
2022/05/05 08:53:16;;;;;;;12.23;5.63;;;;;;;;;;5041067;28;20037;-71
2022/05/05 08:55:43;;;;;;;12.70;5.38;;;;;;;;;;5041103;28;20037;-71
2022/05/05 08:58:09;;;;;;;13.20;5.75;;;;;;;;;;5030305;28;20086;-71
2022/05/05 09:00:36;;;;;;;13.32;5.90;;;;;;;;;;5021146;28;20030;-71
2022/05/05 09:03:04;;;;;;;10.90;5.45;;;;;;;;;;5014247;28;20037;-72
2022/05/05 09:06:01;;;;;;;11.60;5.85;;;;;;;;;;5039697;28;20083;-73
2022/05/05 09:08:27;;;;;;;13.48;6.00;;;;;;;;;;5024332;28;20045;-72
2022/05/05 09:10:54;;;;;;;10.68;5.95;;;;;;;;;;5029588;28;20025;-72
2022/05/05 09:13:24;;;;;;;13.27;5.88;;;;;;;;;;5032283;28;20046;-72
2022/05/05 09:15:50;;;;;;;10.95;5.65;;;;;;;;;;5033706;28;20069;-72
2022/05/05 09:18:17;;;;;;;11.32;6.18;;;;;;;;;;5014188;28;20026;-73
2022/05/05 09:20:44;;;;;;;15.60;6.50;;;;;;;;;;5040032;28;20025;-71
2022/05/05 09:23:11;;;;;;;12.50;6.80;;;;;;;;;;5038696;28;20050;-71
2022/05/05 09:25:47;;;;;;;12.02;6.50;;;;;;;;;;5024589;28;20034;-72
2022/05/05 09:28:20;;;;;;;12.10;6.47;;;;;;;;;;5040396;28;20050;-72
2022/05/05 09:30:47;;;;;;;14.15;7.43;;;;;;;;;;5039956;28;20041;-71
2022/05/05 09:33:36;;;;;;;12.35;6.60;;;;;;;;;;5040323;28;20090;-72
2022/05/05 09:36:04;;;;;;;12.40;6.82;;;;;;;;;;5035058;28;20054;-73
2022/05/05 09:38:50;;;;;;;12.77;6.80;;;;;;;;;;5040109;28;20026;-72
2022/05/05 09:41:16;;;;;;;12.32;6.63;;;;;;;;;;5038132;28;20053;-72
2022/05/05 09:43:42;;;;;;;11.02;6.68;;;;;;;;;;5023182;28;20057;-71
2022/05/05 09:46:32;;;;;;;10.98;6.20;;;;;;;;;;5039239;28;20046;-72
2022/05/05 09:49:07;;;;;;;12.93;6.70;;;;;;;;;;5039917;28;20026;-72
2022/05/05 09:51:35;;;;;;;12.98;6.40;;;;;;;;;;5025511;28;20054;-73
2022/05/05 10:00:09;;;;;;;13.10;6.47;;;;;;;;;;5038968;28;20089;-72
2022/05/05 10:05:50;;;;;;;9.75;6.55;;;;;;;;;;4997703;28;20102;-72
2022/05/05 10:08:20;;;;;;;10.57;5.53;;;;;;;;;;4993834;28;20110;-73
2022/05/05 10:10:47;;;;;;;12.60;6.75;;;;;;;;;;4987055;28;20038;-73
2022/05/05 10:13:13;;;;;;;9.52;6.03;;;;;;;;;;4994240;28;20049;-72
2022/05/05 10:15:40;;;;;;;10.63;6.00;;;;;;;;;;4976257;28;20047;-73
2022/05/05 10:18:06;;;;;;;10.32;6.13;;;;;;;;;;4989838;28;20047;-72
2022/05/05 10:20:33;;;;;;;12.07;6.35;;;;;;;;;;4986230;28;20043;-72
2022/05/05 10:23:02;;;;;;;10.18;6.05;;;;;;;;;;4987665;28;20051;-71
2022/05/05 10:25:32;;;;;;;10.20;6.75;;;;;;;;;;4989272;28;20054;-71
2022/05/05 10:27:59;;;;;;;10.70;5.90;;;;;;;;;;4992651;28;20441;-72
2022/05/05 10:30:34;;;;;;;9.70;6.40;;;;;;;;;;4991360;28;20054;-72
2022/05/05 10:33:00;;;;;;;11.23;6.30;;;;;;;;;;4990815;28;20058;-72
2022/05/05 10:35:26;;;;;;;10.82;6.70;;;;;;;;;;4988040;28;20098;-71
2022/05/05 10:37:52;;;;;;;11.13;6.95;;;;;;;;;;5023918;28;20084;-73
2022/05/05 10:40:18;;;;;;;11.40;7.15;;;;;;;;;;5033396;28;20041;-72
2022/05/05 10:42:45;;;;;;;10.60;6.65;;;;;;;;;;5025269;28;20065;-72
2022/05/05 10:45:30;;;;;;;9.70;5.82;;;;;;;;;;5032457;28;20036;-72
2022/05/05 10:48:06;;;;;;;11.10;6.63;;;;;;;;;;5019489;28;20077;-72
2022/05/05 10:50:56;;;;;;;9.50;5.82;;;;;;;;;;5031880;28;20068;-72
2022/05/05 10:53:27;;;;;;;12.40;6.37;;;;;;;;;;4998968;28;20046;-72
2022/05/05 10:55:53;;;;;;;10.18;6.05;;;;;;;;;;5020751;28;20431;-72
2022/05/05 10:58:38;;;;;;;12.18;6.80;;;;;;;;;;5038524;28;20021;-72
2022/05/05 11:01:09;;;;;;;10.75;5.78;;;;;;;;;;5043386;28;20037;-73
2022/05/05 11:03:35;;;;;;;8.63;5.78;;;;;;;;;;5023727;28;20057;-72
2022/05/05 11:06:17;;;;;;;9.55;5.78;;;;;;;;;;5028702;28;20022;-74
2022/05/05 11:08:53;;;;;;;9.30;5.30;;;;;;;;;;5028097;28;20060;-74
2022/05/05 11:21:31;;;;;;;11.82;6.40;;;;;;;;;;5029767;28;20053;-71
2022/05/05 11:22:41;;;;;;;12.55;7.13;;;;;;;;;;5032238;28;20054;-72
2022/05/05 11:25:07;;;;;;;9.43;6.28;;;;;;;;;;5033059;28;20044;-72
2022/05/05 11:27:34;;;;;;;11.73;6.22;;;;;;;;;;5031799;28;20033;-72
2022/05/05 11:30:00;;;;;;;9.82;6.18;;;;;;;;;;5031058;28;20054;-72
2022/05/05 11:32:32;;;;;;;10.50;6.50;;;;;;;;;;5038825;28;20041;-72
2022/05/05 11:34:59;;;;;;;10.82;6.18;;;;;;;;;;5023762;28;20052;-72
2022/05/05 11:37:29;;;;;;;10.05;6.60;;;;;;;;;;5029086;28;20073;-71
2022/05/05 11:39:55;;;;;;;10.88;6.22;;;;;;;;;;5030608;28;20038;-72
2022/05/05 11:42:21;;;;;;;12.07;6.20;;;;;;;;;;5032194;28;20037;-72
2022/05/05 11:44:48;;;;;;;8.75;5.90;;;;;;;;;;5032182;28;20040;-72
2022/05/05 11:47:19;;;;;;;9.50;4.97;;;;;;;;;;5017511;28;20035;-72
2022/05/05 11:49:46;;;;;;;9.18;5.72;;;;;;;;;;5016737;28;20054;-72
2022/05/05 11:52:33;;;;;;;9.90;6.35;;;;;;;;;;5000032;28;20056;-72
2022/05/05 11:54:59;;;;;;;10.63;5.90;;;;;;;;;;5026404;28;20043;-72
2022/05/05 11:57:39;;;;;;;8.48;5.90;;;;;;;;;;5015497;28;20022;-71
2022/05/05 12:02:51;;;;;;;8.95;5.40;;;;;;;;;;5013939;28;20054;-70
2022/05/05 12:05:18;;;;;;;8.75;5.38;;;;;;;;;;5012168;28;20046;-72
2022/05/05 12:07:46;;;;;;;9.98;5.65;;;;;;;;;;5011298;28;20050;-71
2022/05/05 12:10:13;;;;;;;9.73;5.45;;;;;;;;;;5021957;28;20049;-71
2022/05/05 12:12:43;;;;;;;12.68;5.50;;;;;;;;;;5032521;28;20084;-71
2022/05/05 12:15:10;;;;;;;7.35;4.28;;;;;;;;;;5032999;28;20057;-72
2022/05/05 12:17:42;;;;;;;8.05;4.38;;;;;;;;;;5034344;28;20053;-71
2022/05/05 12:20:10;;;;;;;9.52;3.80;;;;;;;;;;5035792;28;20060;-71
2022/05/05 12:22:38;;;;;;;8.25;4.30;;;;;;;;;;5034384;28;20059;-71
2022/05/05 12:25:13;;;;;;;8.18;3.63;;;;;;;;;;5032855;28;20042;-71
2022/05/05 12:27:39;;;;;;;8.68;3.90;;;;;;;;;;5017061;28;20054;-71
2022/05/05 12:30:06;;;;;;;7.25;5.10;;;;;;;;;;5027283;28;20050;-71
2022/05/05 12:32:32;;;;;;;9.77;5.57;;;;;;;;;;5014022;28;20447;-74
2022/05/05 12:35:03;;;;;;;8.18;5.30;;;;;;;;;;5019164;28;20037;-73
2022/05/05 12:37:29;;;;;;;8.00;5.10;;;;;;;;;;5006704;28;20046;-73
2022/05/05 12:39:56;;;;;;;8.95;5.30;;;;;;;;;;5015096;28;20037;-73
2022/05/05 12:42:22;;;;;;;8.48;4.65;;;;;;;;;;5016060;28;20093;-74
2022/05/05 12:44:49;;;;;;;8.88;4.18;;;;;;;;;;5020162;28;20576;-73
2022/05/05 12:47:21;;;;;;;8.23;4.90;;;;;;;;;;5020707;28;20046;-73
2022/05/05 12:49:47;;;;;;;9.55;5.38;;;;;;;;;;5021155;28;20050;-74
2022/05/05 13:00:28;;;;;;;10.88;5.68;;;;;;;;;;4999712;28;20058;-73
2022/05/05 13:02:54;;;;;;;9.27;5.47;;;;;;;;;;5000043;28;20112;-74
2022/05/05 13:05:20;;;;;;;11.10;5.13;;;;;;;;;;5010945;28;20576;-74
2022/05/05 13:07:46;;;;;;;9.95;5.30;;;;;;;;;;5005988;28;20104;-73
2022/05/05 13:10:12;;;;;;;8.65;4.90;;;;;;;;;;5002406;28;20101;-73
2022/05/05 13:12:38;;;;;;;10.27;5.20;;;;;;;;;;5011240;28;20050;-73
2022/05/05 13:15:04;;;;;;;8.50;5.00;;;;;;;;;;5017688;28;20452;-74
2022/05/05 13:17:30;;;;;;;12.07;4.50;;;;;;;;;;5012304;28;20089;-74
2022/05/05 13:19:56;;;;;;;8.40;5.13;;;;;;;;;;5010508;28;20069;-73
2022/05/05 13:22:22;;;;;;;11.18;5.97;;;;;;;;;;5011490;28;20077;-73
2022/05/05 13:24:48;;;;;;;8.98;4.95;;;;;;;;;;5010651;28;20046;-73
2022/05/05 13:27:14;;;;;;;9.90;5.95;;;;;;;;;;5003334;28;20049;-72
2022/05/05 13:29:40;;;;;;;11.20;5.70;;;;;;;;;;5004980;28;20046;-73
2022/05/05 13:32:07;;;;;;;9.45;5.80;;;;;;;;;;5003085;28;20037;-72
2022/05/05 13:34:33;;;;;;;11.98;5.53;;;;;;;;;;5013743;28;20077;-73
2022/05/05 13:36:59;;;;;;;9.38;5.03;;;;;;;;;;5015186;28;20728;-73
2022/05/05 13:39:27;;;;;;;8.43;5.03;;;;;;;;;;5016505;28;20045;-72
2022/05/05 13:41:53;;;;;;;9.60;4.53;;;;;;;;;;5016170;28;20056;-71
2022/05/05 13:44:20;;;;;;;7.47;4.15;;;;;;;;;;5014910;28;20112;-70
2022/05/05 13:46:46;;;;;;;10.73;3.97;;;;;;;;;;5012649;28;20048;-71
2022/05/05 13:49:12;;;;;;;7.55;3.97;;;;;;;;;;4998581;28;20041;-71
2022/05/05 13:51:38;;;;;;;9.85;4.50;;;;;;;;;;5010041;28;20512;-71
2022/05/05 13:54:04;;;;;;;10.52;5.13;;;;;;;;;;5015634;28;20507;-71
2022/05/05 13:56:31;;;;;;;11.85;4.93;;;;;;;;;;5007168;28;20412;-72
2022/05/05 13:58:57;;;;;;;9.45;4.57;;;;;;;;;;5003808;28;20880;-71
2022/05/05 14:01:23;;;;;;;8.73;4.28;;;;;;;;;;5016284;28;20505;-71
2022/05/05 14:03:49;;;;;;;8.25;4.35;;;;;;;;;;5013327;28;20077;-71
2022/05/05 14:06:15;;;;;;;8.48;4.18;;;;;;;;;;4996126;28;20425;-71
2022/05/05 14:14:12;;;;;;;7.43;4.38;;;;;;;;;;5003739;28;20058;-73
2022/05/05 14:16:38;;;;;;;6.68;3.78;;;;;;;;;;5012092;28;20054;-74
2022/05/05 14:19:05;;;;;;;7.32;3.78;;;;;;;;;;5009136;28;20058;-74
2022/05/05 14:21:31;;;;;;;6.65;3.50;;;;;;;;;;4998187;28;20054;-74
2022/05/05 14:23:57;;;;;;;7.53;3.90;;;;;;;;;;4979321;28;20038;-72
2022/05/05 14:26:23;;;;;;;5.97;3.25;;;;;;;;;;5008383;28;20042;-73
2022/05/05 14:28:49;;;;;;;10.15;3.47;;;;;;;;;;5015712;28;20049;-73
2022/05/05 14:31:15;;;;;;;6.32;3.08;;;;;;;;;;5014716;28;20050;-73
2022/05/05 14:33:41;;;;;;;7.80;3.45;;;;;;;;;;5010434;28;20496;-73
2022/05/05 14:36:07;;;;;;;6.78;3.40;;;;;;;;;;5003610;28;20074;-73
2022/05/05 14:38:33;;;;;;;7.20;3.47;;;;;;;;;;5022530;28;20077;-72
2022/05/05 14:41:00;;;;;;;9.70;4.00;;;;;;;;;;5020202;28;20046;-72
2022/05/05 14:43:26;;;;;;;6.82;3.72;;;;;;;;;;5011817;28;20062;-71
2022/05/05 14:45:52;;;;;;;8.32;4.05;;;;;;;;;;5020661;28;20045;-71
2022/05/05 14:48:18;;;;;;;7.63;3.67;;;;;;;;;;5005646;28;20038;-72
2022/05/05 14:50:44;;;;;;;7.85;3.85;;;;;;;;;;5030847;28;20061;-71
2022/05/05 14:53:10;;;;;;;7.35;3.70;;;;;;;;;;5002461;28;20070;-72
2022/05/05 14:55:36;;;;;;;7.57;4.25;;;;;;;;;;5026384;28;20045;-71
2022/05/05 14:58:02;;;;;;;6.85;3.70;;;;;;;;;;5014606;28;20049;-74
2022/05/05 15:00:28;;;;;;;10.35;3.63;;;;;;;;;;5000425;28;20049;-69
2022/05/05 15:02:54;;;;;;;6.78;3.60;;;;;;;;;;5000942;28;20050;-74
2022/05/05 15:05:22;;;;;;;8.75;4.22;;;;;;;;;;5005469;28;20060;-74
2022/05/05 15:07:48;;;;;;;11.05;4.07;;;;;;;;;;4993321;28;20068;-73
2022/05/05 15:10:14;;;;;;;9.77;3.90;;;;;;;;;;5007136;28;20578;-74
2022/05/05 15:12:40;;;;;;;8.48;5.07;;;;;;;;;;5010976;28;20106;-74
2022/05/05 15:15:07;;;;;;;7.88;3.85;;;;;;;;;;5011369;28;20082;-72
2022/05/05 15:17:33;;;;;;;8.13;4.15;;;;;;;;;;5015560;28;20023;-73
2022/05/05 15:19:59;;;;;;;7.65;3.58;;;;;;;;;;5026144;28;20048;-72
2022/05/05 15:22:25;;;;;;;8.95;3.38;;;;;;;;;;5038169;28;20033;-72
2022/05/05 15:27:47;;;;;;;7.93;3.33;;;;;;;;;;5015040;28;20086;-72